Accueil
METAR-TAF:

METAR-TAF

Aéroports :

Lisbonne, Portugal

Aéroport Humberto Delgado de Lisbonne

latitude: 38-46N, longitude: 009-08W, altitude: 114 m

Observation

Le bulletin a été fait il y a 18 minutes, à 05:00 UTC
Vent 3 kt de ouest/nord-ouest, variant entre ouest et nord/nord-ouest
Température 18°C
Humidité 83%
Pression 1014 hPa
Visibilité 10 km ou plus
Quelques nuages à une hauteur de 1200 ft
Nuages fragmentés à une hauteur de 3200 ft

METAR: LPPT 260500Z 30003KT 280V340 9999 FEW012 BKN032 18/15 Q1014

Heure: 06:18 (05:18 UTC)


TAF: absent

Observations et prévisions météorologiques de plus de 4000 aéroports (messages METAR et TAF).

Les stations disponibles sont représentées par des disques jaunes et rouges sur la carte.

Passer la souris dessus pour voir le nom de la station.

Cliquer dessus pour voir les observations et prévisions météorologiques.

Pour changer de carte: cliquez sur les boutons verts avec une croix noire pour zoomer, sur le bouton vert avec un tiret pour effectuer un zoom arrière, ou sur les flèches vertes pour les cartes adjacentes.


METAR-TAF: